Latest Weather Observations for Macquarie Island*

IDT60801

Issued at 2:35 pm EST Saturday 2 August 2014 (issued every 30 minutes, with the page automatically refreshed every 10 minutes)

About weather observations | Map of weather stations | Latest weather observations for ANT | Other Formats
Station Details ID: 300004 Name: MACQUARIE ISLAND Lat: -54.50 Lon: 158.94 Height: 6.0 m
Data from the previous 72 hours. | See also: Recent months at Macquarie Island*
Date/Time
EST
Temp
°C
App
Temp
°C
Dew
Point
Rel
Hum
%
Delta-T
°C
Wind Press
QNH
hPa
Press
MSL
hPa
Rain
since 9 am
mm
Dir
 
Spd
km/h
Gust
km/h
Spd
kts
Gust
kts
02/02:30pm 0.8 -8.6 -6.5 58 2.3 W 35 46 19 25 1000.5 - 0.0
02/02:17pm 1.0 -8.0 -5.9 60 2.2 W 33 52 18 28 1000.4 - 0.0
02/02:00pm 1.2 -9.3 -5.9 59 2.3 W 41 54 22 29 1000.3 - 0.0
02/01:30pm 1.1 -9.1 -6.4 57 2.4 W 39 54 21 29 999.8 - 0.0
02/01:12pm 1.3 -9.4 -8.2 49 2.9 W 41 61 22 33 999.7 - 0.0
02/01:00pm 1.6 -8.5 -5.5 59 2.3 W 39 54 21 29 999.8 - 0.0
02/12:30pm 1.4 -9.2 -7.1 53 2.7 W 41 52 22 28 999.5 - 0.0
02/12:16pm 1.2 -9.1 -7.5 52 2.7 W 39 59 21 32 999.4 - 0.0
02/12:00pm 1.1 -9.5 -7.1 54 2.6 W 41 54 22 29 999.4 999.7 0.0
02/11:50am 1.1 -8.7 -6.9 55 2.5 W 37 56 20 30 999.2 - 0.0
02/11:30am 0.7 -9.9 -7.3 55 2.4 W 41 54 22 29 999.2 - 0.0
02/11:01am 0.6 -9.9 -5.6 63 2.0 W 41 59 22 32 999.1 - 0.0
02/11:00am 0.6 -10.3 -5.8 62 2.0 W 43 59 23 32 999.0 - 0.0
02/10:53am 1.2 -8.8 -5.3 62 2.1 W 39 59 21 32 998.9 - 0.0
02/10:30am 1.0 -10.0 -5.4 62 2.1 W 44 59 24 32 998.7 - 0.0
02/10:00am 0.4 -10.7 -6.7 59 2.2 W 44 72 24 39 998.1 - 0.0
02/09:50am 0.6 -10.3 -6.5 59 2.2 W 43 61 23 33 998.0 - 0.0
02/09:30am 0.6 -9.8 -5.0 66 1.8 W 41 56 22 30 997.6 - 0.0
02/09:00am 0.6 -10.1 -4.0 71 1.6 W 43 56 23 30 997.3 997.6 2.6
02/08:30am 0.0 -8.6 -2.5 83 0.8 W 33 54 18 29 996.9 - 2.2
02/08:00am 0.0 -7.6 -1.9 87 0.7 SW 28 52 15 28 996.5 - 2.2
02/07:42am 0.0 -8.3 -1.9 87 0.7 W 32 50 17 27 996.1 - 2.2
02/07:30am -0.1 -9.4 -2.2 86 0.7 W 37 50 20 27 995.9 - 2.2
02/07:00am 0.7 -4.8 -2.3 80 1.1 WSW 17 39 9 21 995.3 - 2.2
02/06:30am -0.3 -5.3 -4.2 75 1.2 SW 13 17 7 9 994.6 - 2.2
02/06:00am -0.4 -5.4 -3.9 77 1.1 SW 13 24 7 13 994.1 994.4 2.2
02/05:30am -0.6 -5.5 -3.3 82 0.9 SSW 13 19 7 10 993.5 - 2.2
02/05:00am -0.1 -5.2 -2.3 85 0.7 SSW 15 20 8 11 993.0 - 2.2
02/04:30am 0.3 -5.2 -1.9 85 0.8 SSW 17 22 9 12 992.4 - 2.2
02/04:00am 0.3 -5.1 -1.3 89 0.6 S 17 20 9 11 991.9 - 2.2
02/03:30am 0.0 -6.0 -1.4 90 0.5 S 20 28 11 15 991.4 - 2.2
02/03:00am 0.4 -6.6 -0.6 93 0.4 S 26 32 14 17 991.0 991.3 2.2
02/02:30am 0.7 -5.9 -0.3 93 0.4 SSE 24 33 13 18 990.6 - 2.0
02/02:00am 0.5 -5.3 -0.4 94 0.3 S 20 26 11 14 990.3 - 2.0
02/01:30am 0.5 -4.8 -0.4 94 0.3 S 17 24 9 13 989.9 - 2.0
02/01:00am 0.6 -3.9 -0.4 93 0.4 S 13 20 7 11 989.5 - 2.0
02/12:30am 0.6 -4.3 -0.4 93 0.4 S 15 19 8 10 989.1 - 2.0
02/12:00am 0.6 -3.2 -0.4 93 0.4 SSE 9 13 5 7 988.9 989.2 2.0
 
Date/Time
EST
Temp
°C
App
Temp
°C
Dew
Point
Rel
Hum
%
Delta-T
°C
Wind Press
QNH
hPa
Press
MSL
hPa
Rain
since 9 am
mm
Dir
 
Spd
km/h
Gust
km/h
Spd
kts
Gust
kts
01/11:30pm 0.7 -3.4 -0.3 93 0.4 NW 11 13 6 7 988.9 - 2.0
01/11:00pm 0.9 -3.2 -0.2 92 0.4 NW 11 17 6 9 988.7 - 1.2
01/10:30pm 0.7 -2.7 -0.9 89 0.6 NE 7 9 4 5 988.4 - 0.6
01/10:00pm 0.7 -1.4 -0.9 89 0.6 CALM 0 0 0 0 988.1 - 0.4
01/09:30pm 0.2 -2.0 -1.5 88 0.6 CALM 0 0 0 0 987.9 - 0.4
01/09:00pm 0.1 -2.9 -2.0 86 0.7 NW 4 7 2 4 987.8 988.1 0.4
01/08:30pm 0.1 -2.2 -2.1 85 0.8 CALM 0 6 0 3 987.5 - 0.4
01/08:00pm 0.6 -3.3 -1.5 86 0.8 WSW 9 13 5 7 987.1 - 0.4
01/07:30pm 0.6 -3.4 -1.9 83 0.9 SSW 9 11 5 6 986.6 - 0.4
01/07:00pm 1.1 -2.4 -1.1 85 0.8 SSW 7 17 4 9 986.3 - 0.4
01/06:30pm 1.4 -2.4 -1.0 84 0.9 SW 9 13 5 7 986.2 - 0.0
01/06:00pm 1.6 -3.8 -1.5 80 1.1 WSW 17 26 9 14 985.7 986.0 0.0
01/05:30pm 1.6 -4.6 -0.6 85 0.8 WSW 22 26 12 14 985.4 - 0.0
01/05:00pm 1.6 -3.7 -0.5 86 0.8 W 17 22 9 12 985.0 - 0.0
01/04:30pm 1.8 -3.9 -0.4 85 0.8 WSW 19 28 10 15 984.7 - 0.0
01/04:00pm 2.1 -3.1 -0.2 85 0.8 W 17 20 9 11 984.2 - 0.0
01/03:30pm 2.0 -4.3 -0.7 82 1.0 W 22 26 12 14 983.5 - 0.0
01/03:00pm 2.4 -4.1 0.0 84 0.9 W 24 32 13 17 983.3 983.6 0.0
01/02:30pm 2.4 -3.8 0.0 84 0.9 W 22 28 12 15 982.8 - 0.0
01/02:00pm 2.6 -4.0 -0.2 82 1.0 W 24 32 13 17 982.3 - 0.0
01/01:30pm 3.8 -3.1 0.1 77 1.4 W 26 33 14 18 981.9 - 0.0
01/01:00pm 3.7 -3.5 0.6 80 1.2 W 28 35 15 19 981.7 - 0.0
01/12:30pm 3.6 -2.8 0.8 82 1.1 W 24 32 13 17 981.1 - 0.0
01/12:00pm 3.8 -4.5 -0.2 75 1.5 WNW 33 43 18 23 980.6 980.9 0.0
01/11:54am 4.2 -5.1 0.7 78 1.3 W 39 43 21 23 980.5 - 0.0
01/11:30am 4.4 -5.9 0.6 76 1.5 NW 44 52 24 28 980.2 - 0.0
01/11:19am 4.3 -6.4 -0.1 73 1.7 NNW 46 54 25 29 980.1 - 0.0
01/11:13am 4.0 -7.5 -0.2 74 1.6 WNW 50 57 27 31 980.0 - 0.0
01/11:05am 4.2 -6.0 -0.2 73 1.6 NNW 43 46 23 25 980.0 - 0.0
01/11:00am 4.1 -6.7 -0.7 71 1.8 NW 46 57 25 31 980.0 - 0.0
01/10:30am 4.0 -5.0 0.3 77 1.4 NNW 37 44 20 24 979.8 - 0.0
01/10:03am 4.0 -5.3 0.7 79 1.3 NNW 39 43 21 23 979.7 - 0.0
01/10:00am 4.0 -4.9 0.9 80 1.2 WNW 37 50 20 27 979.6 - 0.0
01/09:54am 4.2 -5.8 0.9 79 1.3 NW 43 50 23 27 979.5 - 0.0
01/09:50am 4.1 -6.0 0.6 78 1.3 N 43 46 23 25 979.4 - 0.0
01/09:30am 3.8 -6.4 -0.4 74 1.6 NW 43 54 23 29 979.2 - 0.0
01/09:00am 3.5 -6.6 0.2 79 1.3 NW 43 52 23 28 978.7 979.0 6.4
01/08:30am 3.4 -6.7 0.1 79 1.2 NW 43 48 23 26 978.4 - 6.4
01/08:00am 3.3 -7.1 -0.3 77 1.3 NNW 44 52 24 28 977.9 - 6.4
01/07:30am 2.8 -7.6 -0.5 79 1.2 NNW 44 57 24 31 977.7 - 6.4
01/07:00am 3.3 -7.5 -0.5 76 1.4 NNW 46 54 25 29 977.0 - 6.4
01/06:30am 3.0 -7.4 -0.5 78 1.3 NW 44 52 24 28 976.7 - 6.4
01/06:12am 2.9 -6.5 -0.2 80 1.1 WNW 39 44 21 24 976.4 - 6.4
01/06:00am 2.9 -8.3 -0.7 77 1.3 NNW 48 56 26 30 976.1 976.4 6.4
01/05:30am 2.6 -7.6 0.0 83 1.0 NNW 43 50 23 27 975.7 - 6.4
01/05:15am 2.3 -5.7 0.5 88 0.7 NW 32 37 17 20 975.6 - 6.4
01/05:10am 2.1 -7.3 0.2 87 0.7 N 39 44 21 24 975.5 - 6.4
01/05:03am 1.8 -9.0 -0.3 86 0.8 WNW 46 65 25 35 975.5 - 6.4
01/05:00am 1.8 -9.7 -0.4 85 0.8 WNW 50 65 27 35 975.5 - 6.4
01/04:47am 2.4 -9.9 -0.5 81 1.1 WNW 54 63 29 34 975.2 - 6.4
01/04:30am 2.9 -7.7 0.5 84 0.9 NNW 46 54 25 29 974.9 - 6.4
01/04:00am 2.7 -7.6 0.1 83 1.0 NW 44 56 24 30 974.5 - 6.4
01/03:30am 3.1 -7.0 0.5 83 1.0 NW 43 56 23 30 974.4 - 6.4
01/03:00am 3.3 -5.6 0.7 83 1.0 NNW 37 43 20 23 973.9 974.2 6.4
01/02:30am 3.9 -4.1 0.4 78 1.3 NNW 32 41 17 22 974.0 - 6.4
01/02:00am 3.7 -5.7 -0.3 75 1.5 NNW 39 46 21 25 974.0 - 6.4
01/01:30am 3.6 -6.2 -0.2 76 1.4 N 41 46 22 25 973.7 - 6.4
01/01:29am 3.6 -6.2 -0.4 75 1.5 N 41 46 22 25 973.7 - 6.4
01/01:00am 3.5 -6.3 -0.1 77 1.3 NW 41 50 22 27 973.3 - 6.4
01/12:30am 3.6 -7.2 -0.2 76 1.4 NW 46 56 25 30 973.0 - 6.4
01/12:00am 3.4 -6.8 -0.1 78 1.3 NW 43 56 23 30 972.7 973.0 6.4
 
Date/Time
EST
Temp
°C
App
Temp
°C
Dew
Point
Rel
Hum
%
Delta-T
°C
Wind Press
QNH
hPa
Press
MSL
hPa
Rain
since 9 am
mm
Dir
 
Spd
km/h
Gust
km/h
Spd
kts
Gust
kts
31/11:47pm 3.4 -7.0 -0.1 78 1.3 NNW 44 52 24 28 972.6 - 6.4
31/11:30pm 3.6 -7.9 0.0 77 1.3 WNW 50 61 27 33 972.5 - 6.4
31/11:00pm 3.6 -8.7 -0.4 75 1.5 NW 54 69 29 37 972.1 - 6.4
31/10:30pm 3.6 -9.1 -0.2 76 1.4 NW 56 70 30 38 971.5 - 6.4
31/10:05pm 3.6 -8.6 0.5 80 1.2 NW 54 61 29 33 970.9 - 6.4
31/10:00pm 3.5 -7.1 0.6 81 1.1 WNW 46 63 25 34 970.9 - 6.4
31/09:43pm 3.1 -7.5 0.5 83 1.0 WNW 46 65 25 35 970.6 - 6.4
31/09:37pm 3.3 -8.6 0.0 79 1.2 W 52 65 28 35 970.6 - 6.4
31/09:30pm 3.7 -9.5 -0.1 76 1.4 NW 59 72 32 39 970.2 - 6.4
31/09:00pm 3.3 -10.2 0.4 81 1.1 WNW 61 82 33 44 969.8 970.1 6.4
31/08:43pm 2.9 -10.3 0.0 81 1.1 WNW 59 78 32 42 969.4 - 6.4
31/08:30pm 3.5 -10.0 0.6 81 1.1 WNW 61 74 33 40 968.9 - 6.4
31/08:01pm 3.5 -10.8 0.2 79 1.2 WNW 65 85 35 46 968.5 - 6.4
31/08:00pm 3.6 -10.7 0.3 79 1.2 WNW 65 82 35 44 968.3 - 6.4
31/07:30pm 3.7 -10.5 0.6 80 1.2 NW 65 83 35 45 967.4 - 6.4
31/07:03pm 3.8 -10.5 0.3 78 1.3 WNW 65 83 35 45 966.7 - 6.4
31/07:00pm 3.8 -10.9 0.3 78 1.3 WNW 67 83 36 45 966.7 - 6.4
31/06:30pm 3.7 -12.0 -0.3 75 1.5 WNW 72 96 39 52 965.5 - 6.4
31/06:06pm 3.9 -11.7 0.6 79 1.3 WNW 72 91 39 49 964.9 - 6.4
31/06:00pm 3.9 -11.6 0.9 81 1.2 WNW 72 89 39 48 964.5 964.8 6.4
31/05:30pm 3.8 -11.1 1.4 84 0.9 WNW 69 93 37 50 963.0 - 6.4
31/05:17pm 3.4 -11.1 1.3 86 0.8 WNW 67 85 36 46 962.6 - 6.4
31/05:15pm 3.4 -10.3 1.4 87 0.8 WNW 63 74 34 40 962.7 - 6.4
31/05:00pm 2.5 -15.1 1.0 90 0.6 WNW 83 109 45 59 962.0 - 6.4
31/04:58pm 2.2 -15.4 0.9 91 0.5 WNW 83 109 45 59 961.8 - 6.2
31/04:30pm 2.8 -15.1 1.6 92 0.5 WNW 85 109 46 59 959.8 - 5.8
31/04:24pm 3.3 -14.1 2.0 91 0.5 WNW 83 109 45 59 959.2 - 5.6
31/04:14pm 3.1 -9.7 2.2 94 0.4 W 59 78 32 42 958.8 - 5.6
31/04:03pm 3.0 -9.3 2.1 94 0.4 W 56 65 30 35 957.6 - 5.6
31/04:00pm 2.9 -10.8 1.9 93 0.4 NW 63 83 34 45 957.0 - 5.6
31/03:59pm 2.8 -11.3 1.8 93 0.4 NW 65 83 35 45 956.9 - 5.6
31/03:49pm 3.0 -12.4 1.8 92 0.5 NNW 72 85 39 46 956.9 - 5.4
31/03:30pm 3.3 -11.7 1.8 90 0.6 WNW 70 95 38 51 956.6 - 5.2
31/03:15pm 3.5 -10.1 2.3 92 0.5 WNW 63 83 34 45 955.9 - 5.2
31/03:00pm 3.4 -8.5 1.9 90 0.6 WNW 54 69 29 37 955.0 955.3 5.2
31/02:41pm 3.6 -5.8 2.3 91 0.5 NW 41 59 22 32 954.1 - 5.0
31/02:38pm 3.7 -4.2 2.5 92 0.5 NNW 33 50 18 27 954.0 - 5.0
31/02:30pm 3.6 -2.6 2.4 92 0.5 NNW 24 32 13 17 953.8 - 5.0
31/02:00pm 3.7 1.0 2.5 92 0.5 WNW 6 9 3 5 952.5 - 4.8
31/01:30pm 3.6 0.7 2.4 92 0.5 WNW 7 11 4 6 952.0 - 4.8
31/01:00pm 2.7 -2.8 1.7 93 0.4 N 20 39 11 21 953.2 - 4.8
31/12:30pm 4.1 -6.5 1.1 81 1.2 N 46 72 25 39 954.9 - 3.4
31/12:25pm 4.9 -3.6 0.7 74 1.6 N 35 72 19 39 955.0 - 3.4
31/12:00pm 5.1 -1.8 2.3 82 1.2 N 28 50 15 27 956.5 956.8 3.4
31/11:30am 4.4 -3.4 2.8 89 0.6 N 33 61 18 33 958.3 - 3.4
31/11:00am 3.5 -6.2 2.6 94 0.4 N 43 65 23 35 960.0 - 3.4
31/10:58am 3.3 -6.4 2.6 95 0.3 N 43 63 23 34 960.1 - 3.4
31/10:30am 2.2 -5.0 0.7 90 0.6 N 28 48 15 26 962.1 - 2.0
31/10:00am 3.4 -2.9 1.6 88 0.7 NNE 24 44 13 24 963.5 - 0.4
31/09:58am 3.4 -2.9 1.6 88 0.7 NE 24 44 13 24 963.6 - 0.4
31/09:30am 3.4 -3.0 1.1 85 0.9 N 24 46 13 25 965.6 - 0.2
31/09:00am 4.6 -2.7 2.3 85 0.9 N 30 56 16 30 966.8 967.1 0.6
31/08:49am 4.5 -2.4 2.7 88 0.7 N 28 56 15 30 967.3 - 0.6
31/08:30am 3.5 -2.4 1.9 89 0.6 N 22 32 12 17 967.9 - 0.6
31/08:00am 4.3 -3.0 2.5 88 0.7 N 30 39 16 21 968.8 - 0.6
31/07:30am 4.1 -2.8 2.3 88 0.7 N 28 39 15 21 969.1 - 0.6
31/07:00am 3.9 -2.7 2.1 88 0.7 N 26 33 14 18 969.5 - 0.6
31/06:30am 3.6 -4.1 2.4 92 0.5 N 32 48 17 26 970.3 - 0.6
31/06:28am 3.6 -3.3 2.6 93 0.4 N 28 46 15 25 970.3 - 0.6
31/06:00am 3.1 -2.2 1.9 92 0.5 N 19 32 10 17 971.0 971.3 0.4
31/05:30am 2.5 -1.4 1.3 92 0.5 NE 11 24 6 13 971.6 - 0.4
31/05:00am 2.1 -2.3 0.5 89 0.6 N 13 33 7 18 972.9 - 0.4
31/04:30am 1.6 -3.2 0.0 89 0.6 E 15 32 8 17 973.4 - 0.4
31/04:00am 1.7 -2.9 -0.9 83 0.9 NNE 13 24 7 13 973.7 - 0.4
31/03:30am 1.6 -3.5 -2.0 77 1.2 NNE 15 26 8 14 974.1 - 0.4
31/03:00am 1.0 -3.4 -2.2 79 1.2 NE 11 17 6 9 974.3 974.6 0.4
31/02:30am 1.1 -4.5 -3.0 74 1.4 N 17 28 9 15 974.6 - 0.4
31/02:00am 1.1 -3.4 -3.4 72 1.6 NNE 11 26 6 14 974.9 - 0.4
31/01:30am 0.9 -4.1 -3.9 70 1.6 N 13 20 7 11 975.0 - 0.4
31/01:00am 0.7 -3.6 -4.9 66 1.8 N 9 17 5 9 975.1 - 0.4
31/12:30am 0.3 -3.0 -4.5 70 1.6 NE 4 9 2 5 975.1 - 0.4
31/12:00am -0.1 -3.4 -4.3 73 1.4 ENE 4 6 2 3 975.1 975.4 0.4
 
Date/Time
EST
Temp
°C
App
Temp
°C
Dew
Point
Rel
Hum
%
Delta-T
°C
Wind Press
QNH
hPa
Press
MSL
hPa
Rain
since 9 am
mm
Dir
 
Spd
km/h
Gust
km/h
Spd
kts
Gust
kts
30/11:30pm -0.4 -3.7 -4.3 75 1.2 S 4 6 2 3 975.0 - 0.4
30/11:00pm -0.6 -4.9 -4.6 74 1.2 S 9 9 5 5 974.7 - 0.4
30/10:30pm -0.4 -4.3 -4.8 72 1.4 SW 7 9 4 5 974.6 - 0.4
30/10:00pm -0.1 -4.8 -4.7 71 1.5 W 11 17 6 9 974.8 - 0.4
30/09:30pm 0.0 -5.8 -5.0 69 1.6 W 17 20 9 11 974.6 - 0.4
30/09:00pm -0.2 -6.6 -5.2 69 1.6 W 20 28 11 15 974.4 974.7 0.4
30/08:30pm -0.3 -5.7 -4.4 74 1.3 W 15 22 8 12 974.0 - 0.4
30/08:00pm -0.3 -6.1 -4.4 74 1.3 W 17 26 9 14 973.6 - 0.4
30/07:30pm -0.4 -6.2 -4.3 75 1.2 SW 17 26 9 14 973.2 - 0.4
30/07:00pm -0.3 -6.5 -4.4 74 1.3 SW 19 30 10 16 972.8 - 0.4
30/06:30pm -0.3 -5.1 -2.8 83 0.8 S 13 24 7 13 972.2 - 0.4
30/06:00pm -0.7 -6.3 -3.1 84 0.8 S 17 24 9 13 971.6 971.9 0.4
30/05:30pm -0.8 -6.8 -3.3 83 0.8 SSW 19 33 10 18 970.9 - 0.4
30/05:00pm -0.1 -7.2 -4.5 72 1.4 S 24 41 13 22 970.3 - 0.4
30/04:30pm -0.3 -6.6 -4.4 74 1.3 S 20 30 11 16 969.5 - 0.4
30/04:00pm 0.0 -6.9 -2.5 83 0.8 S 24 41 13 22 968.9 - 0.4
30/03:30pm 0.1 -6.7 -2.0 86 0.7 S 24 35 13 19 968.3 - 0.4
30/03:09pm 0.3 -7.3 -2.2 83 0.9 SSW 28 46 15 25 967.6 - 0.4
30/03:00pm 0.7 -6.8 -1.7 84 0.9 SSW 28 43 15 23 967.3 967.6 0.4

Other Formats:

Comma delimited format used in spreadsheet applications
http://www.bom.gov.au/fwo/IDT60803/IDT60803.94998.axf

JavaScript Object Notation format (JSON) in row-major order
http://www.bom.gov.au/fwo/IDT60803/IDT60803.94998.json